Time;durP1;ratioP1;P1;durP2;ratioP2;P2;SDS_P1;SDS_P2;PMS_P1;PMS_P2;Temp;Humidity;BMP_temperature;BMP_pressure;BME280_temperature;BME280_humidity;BME280_pressure;Samples;Min_cycle;Max_cycle;Signal;HPM_P1;HPM_P2
2021/07/25 00:01:41;;;;;;;17.00;11.32;;;;;;;;;;5047361;28;20427;-73
2021/07/25 00:04:07;;;;;;;14.50;10.35;;;;;;;;;;5047674;28;20036;-73
2021/07/25 00:06:33;;;;;;;17.45;11.18;;;;;;;;;;5047665;28;20391;-74
2021/07/25 00:08:58;;;;;;;16.83;10.32;;;;;;;;;;5052247;28;20024;-73
2021/07/25 00:11:24;;;;;;;16.42;10.80;;;;;;;;;;5053076;28;20353;-73
2021/07/25 00:13:52;;;;;;;19.10;10.95;;;;;;;;;;5052722;28;20039;-73
2021/07/25 00:16:19;;;;;;;16.00;11.63;;;;;;;;;;5035335;28;20037;-73
2021/07/25 00:18:44;;;;;;;15.05;10.57;;;;;;;;;;5051163;28;20464;-73
2021/07/25 00:21:10;;;;;;;21.38;11.60;;;;;;;;;;5051264;28;20029;-74
2021/07/25 00:23:37;;;;;;;15.32;10.93;;;;;;;;;;5067615;28;20519;-74
2021/07/25 00:26:03;;;;;;;16.40;10.70;;;;;;;;;;5051483;28;20029;-72
2021/07/25 00:28:35;;;;;;;19.35;11.43;;;;;;;;;;5051373;28;20029;-72
2021/07/25 00:31:05;;;;;;;17.15;11.30;;;;;;;;;;5051414;28;20025;-73
2021/07/25 00:33:31;;;;;;;23.85;11.98;;;;;;;;;;5067849;28;20531;-73
2021/07/25 00:35:59;;;;;;;19.35;11.60;;;;;;;;;;5051138;28;20397;-73
2021/07/25 00:38:24;;;;;;;16.15;10.90;;;;;;;;;;5051767;28;20067;-74
2021/07/25 00:40:54;;;;;;;17.05;11.88;;;;;;;;;;5052502;28;20021;-74
2021/07/25 00:43:29;;;;;;;17.23;11.32;;;;;;;;;;5051047;28;20395;-73
2021/07/25 00:45:56;;;;;;;18.50;11.77;;;;;;;;;;5051100;28;20051;-74
2021/07/25 00:48:23;;;;;;;20.58;10.68;;;;;;;;;;5051226;28;20024;-73
2021/07/25 00:50:49;;;;;;;17.73;11.50;;;;;;;;;;5052436;28;20384;-73
2021/07/25 00:53:16;;;;;;;16.27;10.52;;;;;;;;;;5051229;28;20025;-74
2021/07/25 00:55:42;;;;;;;19.80;11.85;;;;;;;;;;5050887;28;20025;-73
2021/07/25 00:58:08;;;;;;;19.02;12.45;;;;;;;;;;5052265;28;20020;-73
2021/07/25 01:00:34;;;;;;;22.15;11.23;;;;;;;;;;5050920;28;20044;-73
2021/07/25 01:03:19;;;;;;;18.30;11.18;;;;;;;;;;5052083;28;20529;-73
2021/07/25 01:05:53;;;;;;;20.20;12.27;;;;;;;;;;5051859;28;20040;-73
2021/07/25 01:08:32;;;;;;;19.33;12.80;;;;;;;;;;5051940;28;20094;-73
2021/07/25 01:10:59;;;;;;;20.38;12.68;;;;;;;;;;5067230;28;20020;-73
2021/07/25 01:13:29;;;;;;;16.83;12.68;;;;;;;;;;5050388;28;20036;-73
2021/07/25 01:15:59;;;;;;;22.30;13.50;;;;;;;;;;5051592;28;20033;-73
2021/07/25 01:18:24;;;;;;;17.17;12.90;;;;;;;;;;5049956;28;20044;-73
2021/07/25 01:20:51;;;;;;;23.17;14.23;;;;;;;;;;5050383;28;20033;-73
2021/07/25 01:23:16;;;;;;;24.73;13.50;;;;;;;;;;5067005;28;20491;-73
2021/07/25 01:25:46;;;;;;;24.35;14.48;;;;;;;;;;5051807;28;20131;-73
2021/07/25 01:28:23;;;;;;;21.92;14.55;;;;;;;;;;5050348;28;20498;-73
2021/07/25 01:30:59;;;;;;;21.13;14.50;;;;;;;;;;5051436;28;20025;-73
2021/07/25 01:33:28;;;;;;;28.63;16.20;;;;;;;;;;5050045;28;20017;-73
2021/07/25 01:35:56;;;;;;;22.35;14.70;;;;;;;;;;5049845;28;20037;-73
2021/07/25 01:38:26;;;;;;;29.02;15.10;;;;;;;;;;5051293;28;20476;-73
2021/07/25 01:41:06;;;;;;;20.85;14.57;;;;;;;;;;5051185;28;20032;-73
2021/07/25 01:43:34;;;;;;;23.40;14.75;;;;;;;;;;5051264;28;20036;-73
2021/07/25 01:46:00;;;;;;;21.80;13.73;;;;;;;;;;5051039;28;20523;-73
2021/07/25 01:48:25;;;;;;;21.70;14.93;;;;;;;;;;5050011;28;20033;-73
2021/07/25 01:50:51;;;;;;;21.83;14.05;;;;;;;;;;5049832;28;20457;-74
2021/07/25 01:53:16;;;;;;;30.88;13.70;;;;;;;;;;5066503;28;20025;-73
2021/07/25 01:55:43;;;;;;;23.38;14.55;;;;;;;;;;5066155;28;20081;-73
2021/07/25 01:58:08;;;;;;;19.77;14.20;;;;;;;;;;5049864;28;20021;-73
2021/07/25 02:00:33;;;;;;;24.80;15.68;;;;;;;;;;5051172;28;20023;-73
2021/07/25 02:02:59;;;;;;;22.67;13.57;;;;;;;;;;5050608;28;20091;-73
2021/07/25 02:05:25;;;;;;;21.42;14.02;;;;;;;;;;5066112;28;20036;-73
2021/07/25 02:07:50;;;;;;;20.58;13.77;;;;;;;;;;5049247;28;20036;-74
2021/07/25 02:10:16;;;;;;;20.50;14.30;;;;;;;;;;5050908;28;20325;-73
2021/07/25 02:12:41;;;;;;;22.17;13.02;;;;;;;;;;5049285;28;20521;-73
2021/07/25 02:15:07;;;;;;;28.23;13.95;;;;;;;;;;5050397;28;20342;-74
2021/07/25 02:17:33;;;;;;;29.77;13.45;;;;;;;;;;5065906;28;20059;-74
2021/07/25 02:19:58;;;;;;;24.25;13.05;;;;;;;;;;5050456;28;20259;-73
2021/07/25 02:22:24;;;;;;;33.25;18.40;;;;;;;;;;5050561;28;20531;-74
2021/07/25 02:24:49;;;;;;;20.45;13.43;;;;;;;;;;5050485;28;20040;-74
2021/07/25 02:27:15;;;;;;;25.58;13.68;;;;;;;;;;5049153;28;20032;-73
2021/07/25 02:29:40;;;;;;;28.35;15.68;;;;;;;;;;5050199;28;20100;-74
2021/07/25 02:32:06;;;;;;;20.27;13.48;;;;;;;;;;5049039;28;20396;-73
2021/07/25 02:34:32;;;;;;;19.10;14.82;;;;;;;;;;5065780;28;20656;-73
2021/07/25 02:36:57;;;;;;;19.35;13.15;;;;;;;;;;5050204;28;20459;-73
2021/07/25 02:39:23;;;;;;;18.10;13.40;;;;;;;;;;5065681;28;20060;-73
2021/07/25 02:41:48;;;;;;;19.65;13.35;;;;;;;;;;5048982;28;20547;-72
2021/07/25 02:44:14;;;;;;;16.70;13.10;;;;;;;;;;5050588;28;20025;-72
2021/07/25 02:46:39;;;;;;;26.20;13.32;;;;;;;;;;5050235;28;20028;-72
2021/07/25 02:49:05;;;;;;;21.00;12.68;;;;;;;;;;5049915;28;20096;-72
2021/07/25 02:51:30;;;;;;;25.25;12.80;;;;;;;;;;5065454;28;20165;-74
2021/07/25 02:53:57;;;;;;;18.63;13.77;;;;;;;;;;5049819;28;20036;-73
2021/07/25 02:56:23;;;;;;;21.27;12.98;;;;;;;;;;5048598;28;20032;-73
2021/07/25 02:58:48;;;;;;;19.65;12.82;;;;;;;;;;5049783;28;20029;-73
2021/07/25 03:01:15;;;;;;;23.08;13.43;;;;;;;;;;5049799;28;20496;-73
2021/07/25 03:03:40;;;;;;;20.45;13.85;;;;;;;;;;5032117;28;20029;-73
2021/07/25 03:06:06;;;;;;;19.48;14.05;;;;;;;;;;5049641;28;20029;-73
2021/07/25 03:08:32;;;;;;;20.55;14.20;;;;;;;;;;5048387;28;20025;-73
2021/07/25 03:10:57;;;;;;;22.70;13.75;;;;;;;;;;5048063;28;20028;-73
2021/07/25 03:13:23;;;;;;;23.92;13.68;;;;;;;;;;5065126;28;20440;-73
2021/07/25 03:15:48;;;;;;;18.23;13.15;;;;;;;;;;5064844;28;20035;-72
2021/07/25 03:18:14;;;;;;;23.52;14.52;;;;;;;;;;5048474;28;20036;-73
2021/07/25 03:20:39;;;;;;;17.80;13.30;;;;;;;;;;5048037;28;20029;-73
2021/07/25 03:23:05;;;;;;;19.75;13.57;;;;;;;;;;5047789;28;20025;-72
2021/07/25 03:25:30;;;;;;;19.85;13.70;;;;;;;;;;5049432;28;20051;-73
2021/07/25 03:27:56;;;;;;;21.75;13.90;;;;;;;;;;5064344;28;20385;-72
2021/07/25 03:30:21;;;;;;;19.20;13.75;;;;;;;;;;5048106;28;20027;-73
2021/07/25 03:32:47;;;;;;;17.60;13.32;;;;;;;;;;5064373;28;20033;-73
2021/07/25 03:35:12;;;;;;;21.95;13.57;;;;;;;;;;5049257;28;20059;-72
2021/07/25 03:37:42;;;;;;;22.73;12.60;;;;;;;;;;5064702;28;20045;-74
2021/07/25 03:40:08;;;;;;;22.08;13.55;;;;;;;;;;5064706;28;20034;-74
2021/07/25 03:42:34;;;;;;;18.10;13.68;;;;;;;;;;5047819;28;20455;-73
2021/07/25 03:44:59;;;;;;;22.88;13.82;;;;;;;;;;5064208;28;20476;-72
2021/07/25 03:47:25;;;;;;;19.77;12.60;;;;;;;;;;5049071;28;20063;-72
2021/07/25 03:49:50;;;;;;;18.42;12.35;;;;;;;;;;5064213;28;20024;-73
2021/07/25 03:52:16;;;;;;;18.75;12.25;;;;;;;;;;5047718;28;20020;-73
2021/07/25 03:54:46;;;;;;;20.83;12.50;;;;;;;;;;5049471;28;20049;-73
2021/07/25 03:57:12;;;;;;;19.38;12.80;;;;;;;;;;5047841;28;20021;-73
2021/07/25 03:59:37;;;;;;;17.98;11.70;;;;;;;;;;5049129;28;20028;-73
2021/07/25 04:02:04;;;;;;;22.45;12.95;;;;;;;;;;5048614;28;20151;-73
2021/07/25 04:04:30;;;;;;;18.30;11.45;;;;;;;;;;5048973;28;20388;-73
2021/07/25 04:06:55;;;;;;;18.15;12.65;;;;;;;;;;5047437;28;20037;-74
2021/07/25 04:09:21;;;;;;;17.73;12.05;;;;;;;;;;5048892;28;20035;-73
2021/07/25 04:11:55;;;;;;;27.17;13.13;;;;;;;;;;5048803;28;20443;-73
2021/07/25 04:14:21;;;;;;;15.75;11.95;;;;;;;;;;5048956;28;20035;-74
2021/07/25 04:16:46;;;;;;;16.40;12.13;;;;;;;;;;5047265;28;20047;-73
2021/07/25 04:19:12;;;;;;;25.63;12.20;;;;;;;;;;5047996;28;20476;-73
2021/07/25 04:21:37;;;;;;;19.67;11.45;;;;;;;;;;5064090;28;20022;-73
2021/07/25 04:24:03;;;;;;;20.45;12.50;;;;;;;;;;5048956;28;20025;-71
2021/07/25 04:26:29;;;;;;;28.17;13.35;;;;;;;;;;5048748;28;20040;-73
2021/07/25 04:28:55;;;;;;;17.17;11.27;;;;;;;;;;5063817;28;20423;-72
2021/07/25 04:31:20;;;;;;;27.15;12.52;;;;;;;;;;5048638;28;20349;-73
2021/07/25 04:33:51;;;;;;;19.67;11.02;;;;;;;;;;5063749;28;20025;-73
2021/07/25 04:36:24;;;;;;;21.83;12.00;;;;;;;;;;5047123;28;20511;-73
2021/07/25 04:38:50;;;;;;;20.77;12.20;;;;;;;;;;5047312;28;20468;-73
2021/07/25 04:41:20;;;;;;;13.80;10.70;;;;;;;;;;5047135;28;20091;-73
2021/07/25 04:43:46;;;;;;;15.23;10.88;;;;;;;;;;5063972;28;20029;-74
2021/07/25 04:46:26;;;;;;;16.38;12.02;;;;;;;;;;5048542;28;20472;-73
2021/07/25 04:49:11;;;;;;;16.92;11.20;;;;;;;;;;5047204;28;20214;-74
2021/07/25 04:51:38;;;;;;;20.90;11.52;;;;;;;;;;5064102;28;20389;-73
2021/07/25 04:54:15;;;;;;;22.00;12.55;;;;;;;;;;5048540;28;20491;-73
2021/07/25 04:56:58;;;;;;;19.63;11.85;;;;;;;;;;5052170;28;20523;-74
2021/07/25 04:59:30;;;;;;;17.15;11.43;;;;;;;;;;5067616;28;20158;-73
2021/07/25 05:02:03;;;;;;;14.60;11.02;;;;;;;;;;5050852;28;20021;-73
2021/07/25 05:04:29;;;;;;;15.02;11.20;;;;;;;;;;5050941;28;20336;-73
2021/07/25 05:06:55;;;;;;;16.70;10.98;;;;;;;;;;5050543;28;20056;-73
2021/07/25 05:09:21;;;;;;;15.32;10.93;;;;;;;;;;5051936;28;20092;-73
2021/07/25 05:12:10;;;;;;;17.23;11.30;;;;;;;;;;5051952;28;20059;-73
2021/07/25 05:14:39;;;;;;;23.20;11.88;;;;;;;;;;5050686;28;20025;-73
2021/07/25 05:17:28;;;;;;;19.52;11.60;;;;;;;;;;5066944;28;20017;-73
2021/07/25 05:20:02;;;;;;;19.02;10.52;;;;;;;;;;5051667;28;20082;-73
2021/07/25 05:22:47;;;;;;;15.52;10.73;;;;;;;;;;5051665;28;20017;-73
2021/07/25 05:25:15;;;;;;;16.05;10.73;;;;;;;;;;5066768;28;20078;-73
2021/07/25 05:27:44;;;;;;;16.15;10.70;;;;;;;;;;5051630;28;20083;-73
2021/07/25 05:30:13;;;;;;;16.75;10.98;;;;;;;;;;5051532;28;20079;-73
2021/07/25 05:32:39;;;;;;;18.35;10.95;;;;;;;;;;5050265;28;20481;-73
2021/07/25 05:35:05;;;;;;;15.60;10.60;;;;;;;;;;5051333;28;20029;-73
2021/07/25 05:37:31;;;;;;;15.32;10.70;;;;;;;;;;5051287;28;20060;-73
2021/07/25 05:39:57;;;;;;;17.50;9.80;;;;;;;;;;5033407;28;20036;-73
2021/07/25 05:42:23;;;;;;;17.42;10.48;;;;;;;;;;5049927;28;20375;-73
2021/07/25 05:44:48;;;;;;;14.35;10.05;;;;;;;;;;5066621;28;20565;-74
2021/07/25 05:47:14;;;;;;;19.23;10.82;;;;;;;;;;5051165;28;20100;-73
2021/07/25 05:49:40;;;;;;;13.95;10.07;;;;;;;;;;5066992;28;20104;-73
2021/07/25 05:52:06;;;;;;;14.00;10.02;;;;;;;;;;5049636;28;20078;-73
2021/07/25 05:54:31;;;;;;;16.55;11.07;;;;;;;;;;5049863;28;20384;-73
2021/07/25 05:56:57;;;;;;;17.27;11.30;;;;;;;;;;5050961;28;20032;-73
2021/07/25 05:59:22;;;;;;;21.40;10.80;;;;;;;;;;5051160;28;20035;-73
2021/07/25 06:01:48;;;;;;;17.58;11.40;;;;;;;;;;5066355;28;20120;-74
2021/07/25 06:04:13;;;;;;;18.67;12.70;;;;;;;;;;5049265;28;20379;-74
2021/07/25 06:06:39;;;;;;;20.63;10.85;;;;;;;;;;5050961;28;20025;-74
2021/07/25 06:09:06;;;;;;;13.35;9.50;;;;;;;;;;5049169;28;20025;-73
2021/07/25 06:11:31;;;;;;;17.67;10.35;;;;;;;;;;5051087;28;20541;-74
2021/07/25 06:13:57;;;;;;;15.32;10.85;;;;;;;;;;5065828;28;20121;-74
2021/07/25 06:16:25;;;;;;;14.10;9.95;;;;;;;;;;5050271;28;20120;-74
2021/07/25 06:18:50;;;;;;;14.82;9.95;;;;;;;;;;5049215;28;20063;-73
2021/07/25 06:21:19;;;;;;;15.90;10.27;;;;;;;;;;5050603;28;20448;-73
2021/07/25 06:23:49;;;;;;;15.27;9.45;;;;;;;;;;5065781;28;20033;-74
2021/07/25 06:26:14;;;;;;;17.05;9.90;;;;;;;;;;5048953;28;20033;-74
2021/07/25 06:28:41;;;;;;;13.23;10.10;;;;;;;;;;5048968;28;20025;-73
2021/07/25 06:31:06;;;;;;;17.90;9.85;;;;;;;;;;5050007;28;20032;-73
2021/07/25 06:33:32;;;;;;;16.13;9.85;;;;;;;;;;5049257;28;20401;-73
2021/07/25 06:35:57;;;;;;;13.98;10.15;;;;;;;;;;5050218;28;20037;-74
2021/07/25 06:38:23;;;;;;;21.98;10.95;;;;;;;;;;5049314;28;20385;-74
2021/07/25 06:40:52;;;;;;;14.02;9.70;;;;;;;;;;5065381;28;20563;-73
2021/07/25 06:43:18;;;;;;;13.55;9.63;;;;;;;;;;5048905;28;20037;-72
2021/07/25 06:45:44;;;;;;;13.18;9.82;;;;;;;;;;5050358;28;20090;-73
2021/07/25 06:48:22;;;;;;;23.92;10.35;;;;;;;;;;5048629;28;20037;-73
2021/07/25 06:50:50;;;;;;;17.00;10.70;;;;;;;;;;5049965;28;20089;-73
2021/07/25 06:53:18;;;;;;;14.90;9.90;;;;;;;;;;5049818;28;20437;-73
2021/07/25 06:55:44;;;;;;;14.35;10.23;;;;;;;;;;5048655;28;20021;-74
2021/07/25 06:58:09;;;;;;;15.20;10.57;;;;;;;;;;5064985;28;20078;-74
2021/07/25 07:00:35;;;;;;;18.13;11.77;;;;;;;;;;5048216;28;20033;-74
2021/07/25 07:03:01;;;;;;;15.70;10.15;;;;;;;;;;5048090;28;20358;-74
2021/07/25 07:05:30;;;;;;;17.75;11.00;;;;;;;;;;5048700;28;20136;-74
2021/07/25 07:07:58;;;;;;;18.20;10.98;;;;;;;;;;5049389;28;20371;-75
2021/07/25 07:10:26;;;;;;;15.98;10.05;;;;;;;;;;5048156;28;20041;-74
2021/07/25 07:12:53;;;;;;;13.57;10.63;;;;;;;;;;5049626;28;20082;-71
2021/07/25 07:15:20;;;;;;;15.75;10.60;;;;;;;;;;5049367;28;20027;-73
2021/07/25 07:17:49;;;;;;;15.02;10.45;;;;;;;;;;5047728;28;20108;-73
2021/07/25 07:20:14;;;;;;;18.05;10.00;;;;;;;;;;5049099;28;20025;-73
2021/07/25 07:22:40;;;;;;;17.33;10.65;;;;;;;;;;5048125;28;20083;-73
2021/07/25 07:25:07;;;;;;;14.70;10.73;;;;;;;;;;5047814;28;20108;-74
2021/07/25 07:27:34;;;;;;;16.27;9.88;;;;;;;;;;5048026;28;20029;-74
2021/07/25 07:30:00;;;;;;;15.00;9.93;;;;;;;;;;5047514;28;20028;-72
2021/07/25 07:32:26;;;;;;;13.65;10.18;;;;;;;;;;5047872;28;20029;-73
2021/07/25 07:34:51;;;;;;;15.50;10.77;;;;;;;;;;5047700;28;20031;-73
2021/07/25 07:37:17;;;;;;;14.57;10.20;;;;;;;;;;5048876;28;20072;-73
2021/07/25 07:39:43;;;;;;;21.33;14.65;;;;;;;;;;5049387;28;20045;-73
2021/07/25 07:42:10;;;;;;;18.88;11.73;;;;;;;;;;5047559;28;20033;-73
2021/07/25 07:44:37;;;;;;;20.15;10.82;;;;;;;;;;5064535;28;20032;-73
2021/07/25 07:47:03;;;;;;;16.90;10.27;;;;;;;;;;5048812;28;20021;-73
2021/07/25 07:49:29;;;;;;;33.50;11.40;;;;;;;;;;5049149;28;20498;-74
2021/07/25 07:51:54;;;;;;;13.88;10.00;;;;;;;;;;5064144;28;20111;-75
2021/07/25 07:54:20;;;;;;;16.00;10.50;;;;;;;;;;5064327;28;20048;-74
2021/07/25 07:56:45;;;;;;;22.63;11.38;;;;;;;;;;5049255;28;20036;-76
2021/07/25 07:59:11;;;;;;;14.65;9.63;;;;;;;;;;5048703;28;20036;-74
2021/07/25 08:01:37;;;;;;;16.60;10.60;;;;;;;;;;5047662;28;20571;-74
2021/07/25 08:04:02;;;;;;;14.30;10.00;;;;;;;;;;5047326;28;20025;-74
2021/07/25 08:06:28;;;;;;;14.38;9.50;;;;;;;;;;5049101;28;20025;-75
2021/07/25 08:08:53;;;;;;;77.55;14.57;;;;;;;;;;5047547;28;20021;-75
2021/07/25 08:11:19;;;;;;;26.77;15.57;;;;;;;;;;5048606;28;20384;-75
2021/07/25 08:13:45;;;;;;;20.42;9.82;;;;;;;;;;5048735;28;20025;-75
2021/07/25 08:16:11;;;;;;;17.65;10.55;;;;;;;;;;5048542;28;20033;-74
2021/07/25 08:18:37;;;;;;;18.13;10.20;;;;;;;;;;5048635;28;20127;-73
2021/07/25 08:21:04;;;;;;;18.55;10.27;;;;;;;;;;5048504;28;20051;-75
2021/07/25 08:23:30;;;;;;;13.27;9.38;;;;;;;;;;5047478;28;20029;-73
2021/07/25 08:25:55;;;;;;;17.75;10.25;;;;;;;;;;5047648;28;20079;-74
2021/07/25 08:28:21;;;;;;;13.68;9.77;;;;;;;;;;5064329;28;20032;-74
2021/07/25 08:30:46;;;;;;;17.42;9.65;;;;;;;;;;5051328;28;20013;-73
2021/07/25 08:33:12;;;;;;;14.60;9.52;;;;;;;;;;5051116;28;20051;-73
2021/07/25 08:35:37;;;;;;;14.77;8.88;;;;;;;;;;5050963;28;20107;-73
2021/07/25 08:38:03;;;;;;;13.90;9.25;;;;;;;;;;5050974;28;20605;-74
2021/07/25 08:40:31;;;;;;;11.73;9.50;;;;;;;;;;5051022;28;20033;-75
2021/07/25 08:43:09;;;;;;;15.93;9.70;;;;;;;;;;5052407;28;20078;-74
2021/07/25 08:45:38;;;;;;;15.63;9.82;;;;;;;;;;5052122;28;20028;-74
2021/07/25 08:48:14;;;;;;;13.77;9.48;;;;;;;;;;5052119;28;20095;-75
2021/07/25 08:51:02;;;;;;;13.82;9.63;;;;;;;;;;5050677;28;20551;-74
2021/07/25 08:53:34;;;;;;;16.90;9.68;;;;;;;;;;5052549;28;20095;-76
2021/07/25 08:56:00;;;;;;;20.17;10.32;;;;;;;;;;5052311;28;20028;-76
2021/07/25 08:58:28;;;;;;;15.25;9.30;;;;;;;;;;5052078;28;20086;-76
2021/07/25 09:00:54;;;;;;;13.80;9.50;;;;;;;;;;5050665;28;20024;-75
2021/07/25 09:03:21;;;;;;;16.35;9.75;;;;;;;;;;5051876;28;20075;-75
2021/07/25 09:05:47;;;;;;;16.30;9.82;;;;;;;;;;5033933;28;20443;-75
2021/07/25 09:08:14;;;;;;;16.23;9.88;;;;;;;;;;5050408;28;20017;-74
2021/07/25 09:10:40;;;;;;;15.13;10.32;;;;;;;;;;5050455;28;20013;-75
2021/07/25 09:13:06;;;;;;;12.98;9.63;;;;;;;;;;5067247;28;20052;-75
2021/07/25 09:15:34;;;;;;;16.58;9.25;;;;;;;;;;5051958;28;20064;-76
2021/07/25 09:18:02;;;;;;;14.48;9.68;;;;;;;;;;5050487;28;20456;-75
2021/07/25 09:20:33;;;;;;;14.68;10.23;;;;;;;;;;5050116;28;20465;-76
2021/07/25 09:23:04;;;;;;;15.43;10.60;;;;;;;;;;5050774;28;20036;-75
2021/07/25 09:25:34;;;;;;;13.07;9.68;;;;;;;;;;5051802;28;20037;-75
2021/07/25 09:27:59;;;;;;;14.68;10.50;;;;;;;;;;5050131;28;20571;-76
2021/07/25 09:30:27;;;;;;;16.30;9.38;;;;;;;;;;5066609;28;20112;-75
2021/07/25 09:32:53;;;;;;;13.30;9.65;;;;;;;;;;5050201;28;20021;-75
2021/07/25 09:35:27;;;;;;;12.30;9.48;;;;;;;;;;5049757;28;20029;-76
2021/07/25 09:38:14;;;;;;;12.30;9.60;;;;;;;;;;5050100;28;20596;-75
2021/07/25 09:40:44;;;;;;;12.10;8.90;;;;;;;;;;5050929;28;20075;-76
2021/07/25 09:43:12;;;;;;;13.95;8.57;;;;;;;;;;5051436;28;20017;-75
2021/07/25 09:45:50;;;;;;;13.10;8.80;;;;;;;;;;5051096;28;20388;-75
2021/07/25 09:48:16;;;;;;;19.17;8.63;;;;;;;;;;5049296;28;20486;-76
2021/07/25 09:50:42;;;;;;;14.15;8.23;;;;;;;;;;5049450;28;20372;-74
2021/07/25 09:53:08;;;;;;;9.93;7.57;;;;;;;;;;5049186;28;20025;-74
2021/07/25 09:55:33;;;;;;;14.05;8.73;;;;;;;;;;5050787;28;20073;-76
2021/07/25 09:57:59;;;;;;;12.70;8.57;;;;;;;;;;5050623;28;20430;-75
2021/07/25 10:00:38;;;;;;;11.48;8.82;;;;;;;;;;5050540;28;20080;-75
2021/07/25 10:03:23;;;;;;;21.38;9.70;;;;;;;;;;5050625;28;20496;-75
2021/07/25 10:05:49;;;;;;;13.48;8.77;;;;;;;;;;5050633;28;20032;-75
2021/07/25 10:08:16;;;;;;;12.18;8.02;;;;;;;;;;5049034;28;20039;-75
2021/07/25 10:10:47;;;;;;;15.57;9.20;;;;;;;;;;5049320;28;20309;-75
2021/07/25 10:13:14;;;;;;;;;;;;;;;;;;5049461;28;20029;-76
2021/07/25 10:15:41;;;;;;;14.05;8.80;;;;;;;;;;5049189;28;19908;-74
2021/07/25 10:18:07;;;;;;;11.98;7.65;;;;;;;;;;5049251;28;20021;-74
2021/07/25 10:20:34;;;;;;;11.55;8.85;;;;;;;;;;5049020;28;20025;-76
2021/07/25 10:23:01;;;;;;;13.85;8.13;;;;;;;;;;5049136;28;20029;-75
2021/07/25 10:25:28;;;;;;;16.27;9.38;;;;;;;;;;5048772;28;20029;-75
2021/07/25 10:27:57;;;;;;;10.95;8.20;;;;;;;;;;5048408;28;20031;-75
2021/07/25 10:30:23;;;;;;;13.63;8.82;;;;;;;;;;5065258;28;20090;-74
2021/07/25 10:32:50;;;;;;;14.70;9.70;;;;;;;;;;5048776;28;20029;-76
2021/07/25 10:35:18;;;;;;;11.40;9.23;;;;;;;;;;5048669;28;20020;-74
2021/07/25 10:37:44;;;;;;;11.98;8.63;;;;;;;;;;5050027;28;20053;-74
2021/07/25 10:40:13;;;;;;;12.00;8.82;;;;;;;;;;5049678;28;20016;-73
2021/07/25 10:42:49;;;;;;;15.32;9.27;;;;;;;;;;5048515;28;20035;-74
2021/07/25 10:45:15;;;;;;;11.90;8.48;;;;;;;;;;5048212;28;20055;-74
2021/07/25 10:47:42;;;;;;;13.32;8.85;;;;;;;;;;5048378;28;20024;-74
2021/07/25 10:50:18;;;;;;;13.00;8.85;;;;;;;;;;5048253;28;20028;-74
2021/07/25 10:52:50;;;;;;;11.73;8.73;;;;;;;;;;5047571;28;20259;-75
2021/07/25 10:55:38;;;;;;;13.60;8.82;;;;;;;;;;5049168;28;20028;-75
2021/07/25 10:58:07;;;;;;;13.68;8.50;;;;;;;;;;5049891;28;20108;-75
2021/07/25 11:00:53;;;;;;;15.40;8.88;;;;;;;;;;5048123;28;20056;-76
2021/07/25 11:03:24;;;;;;;14.27;8.43;;;;;;;;;;5031755;28;20029;-75
2021/07/25 11:05:59;;;;;;;15.63;8.65;;;;;;;;;;5048623;28;20060;-75
2021/07/25 11:08:34;;;;;;;15.27;8.98;;;;;;;;;;5048051;28;20561;-75
2021/07/25 11:11:00;;;;;;;12.60;9.13;;;;;;;;;;5048076;28;20021;-75
2021/07/25 11:13:39;;;;;;;16.25;8.82;;;;;;;;;;5049634;28;20039;-76
2021/07/25 11:16:29;;;;;;;12.60;8.52;;;;;;;;;;5047756;28;20102;-76
2021/07/25 11:19:00;;;;;;;11.43;7.85;;;;;;;;;;5049602;28;20028;-75
2021/07/25 11:21:39;;;;;;;17.50;8.57;;;;;;;;;;5048789;28;20111;-75
2021/07/25 11:24:20;;;;;;;11.43;8.43;;;;;;;;;;5047808;28;20025;-75
2021/07/25 11:26:47;;;;;;;19.65;8.93;;;;;;;;;;5049443;28;20032;-76
2021/07/25 11:29:18;;;;;;;14.23;8.77;;;;;;;;;;5049753;28;20417;-75
2021/07/25 11:31:46;;;;;;;13.82;8.38;;;;;;;;;;5049386;28;20101;-76
2021/07/25 11:34:14;;;;;;;14.13;7.88;;;;;;;;;;5049094;28;20033;-76
2021/07/25 11:36:40;;;;;;;12.70;8.18;;;;;;;;;;5048996;28;20496;-76
2021/07/25 11:39:07;;;;;;;14.50;8.38;;;;;;;;;;5049206;28;20055;-76
2021/07/25 11:41:36;;;;;;;11.93;8.95;;;;;;;;;;5048724;28;20017;-76
2021/07/25 11:44:04;;;;;;;13.18;8.23;;;;;;;;;;5064721;28;20384;-75
2021/07/25 11:46:48;;;;;;;11.77;7.60;;;;;;;;;;5047675;28;20025;-75
2021/07/25 11:49:18;;;;;;;10.40;7.88;;;;;;;;;;5048887;28;20036;-75
2021/07/25 11:52:00;;;;;;;14.95;7.45;;;;;;;;;;5048925;28;20025;-76
2021/07/25 11:54:35;;;;;;;12.30;7.82;;;;;;;;;;5064161;28;20056;-75
2021/07/25 11:57:15;;;;;;;10.93;8.45;;;;;;;;;;5047750;28;20498;-75
2021/07/25 12:00:08;;;;;;;14.52;8.23;;;;;;;;;;5049553;28;20029;-77
2021/07/25 12:02:38;;;;;;;9.68;7.72;;;;;;;;;;5051310;28;20036;-76
2021/07/25 12:05:04;;;;;;;15.27;7.53;;;;;;;;;;5056901;28;20029;-76
2021/07/25 12:07:38;;;;;;;10.13;6.97;;;;;;;;;;5054306;28;20031;-78
2021/07/25 12:10:04;;;;;;;12.63;7.90;;;;;;;;;;5055743;28;20080;-77
2021/07/25 12:12:36;;;;;;;13.75;7.40;;;;;;;;;;5055592;28;20484;-76
2021/07/25 12:15:03;;;;;;;9.40;7.28;;;;;;;;;;5054259;28;20037;-76
2021/07/25 12:17:38;;;;;;;11.20;7.63;;;;;;;;;;5053968;28;20032;-76
2021/07/25 12:20:15;;;;;;;9.10;7.20;;;;;;;;;;5055856;28;20075;-74
2021/07/25 12:22:56;;;;;;;9.35;6.88;;;;;;;;;;5053968;28;20035;-75
2021/07/25 12:25:22;;;;;;;;;;;;;;;;;;5055906;28;20035;-74
2021/07/25 12:28:13;;;;;;;11.43;7.20;;;;;;;;;;5070728;28;19948;-74
2021/07/25 12:30:44;;;;;;;9.05;6.68;;;;;;;;;;5054348;28;20561;-74
2021/07/25 12:33:11;;;;;;;13.13;8.32;;;;;;;;;;5055679;28;20036;-74
2021/07/25 12:35:36;;;;;;;9.95;6.75;;;;;;;;;;5055398;28;20043;-75
2021/07/25 12:38:09;;;;;;;11.40;7.13;;;;;;;;;;5056125;28;20036;-75
2021/07/25 12:40:51;;;;;;;10.35;7.40;;;;;;;;;;5055062;28;20044;-76
2021/07/25 12:43:22;;;;;;;17.42;8.32;;;;;;;;;;5054383;28;20029;-73
2021/07/25 12:45:52;;;;;;;10.10;6.60;;;;;;;;;;5055128;28;20057;-74
2021/07/25 12:48:21;;;;;;;11.82;6.97;;;;;;;;;;5054677;28;20029;-75
2021/07/25 12:53:42;;;;;;;9.80;6.38;;;;;;;;;;5054880;28;20028;-74
2021/07/25 12:56:15;;;;;;;11.57;7.22;;;;;;;;;;5053276;28;20392;-74
2021/07/25 12:58:44;;;;;;;11.90;6.53;;;;;;;;;;5054835;28;20033;-74
2021/07/25 13:03:47;;;;;;;11.10;6.22;;;;;;;;;;5054774;28;20072;-75
2021/07/25 13:06:21;;;;;;;11.05;7.03;;;;;;;;;;5053461;28;20115;-75
2021/07/25 13:08:49;;;;;;;28.42;7.53;;;;;;;;;;5053489;28;20041;-76
2021/07/25 13:11:16;;;;;;;10.18;6.75;;;;;;;;;;5053589;28;20021;-75
2021/07/25 13:13:47;;;;;;;7.72;6.30;;;;;;;;;;5052780;28;20146;-74
2021/07/25 13:16:15;;;;;;;11.68;6.45;;;;;;;;;;5051494;28;20025;-74
2021/07/25 13:18:43;;;;;;;9.77;7.68;;;;;;;;;;5050323;28;20029;-74
2021/07/25 13:21:09;;;;;;;22.85;14.65;;;;;;;;;;5049289;28;20125;-74
2021/07/25 13:23:36;;;;;;;10.15;7.00;;;;;;;;;;5050197;28;20476;-74
2021/07/25 13:26:02;;;;;;;25.67;8.50;;;;;;;;;;5050314;28;20032;-74
2021/07/25 13:28:28;;;;;;;9.55;7.18;;;;;;;;;;5050015;28;20029;-74
2021/07/25 13:30:54;;;;;;;12.55;6.93;;;;;;;;;;5050135;28;20044;-74
2021/07/25 13:33:20;;;;;;;11.43;7.65;;;;;;;;;;5049774;28;20021;-74
2021/07/25 13:35:48;;;;;;;9.32;6.53;;;;;;;;;;5033211;28;20439;-75
2021/07/25 13:38:13;;;;;;;10.73;7.22;;;;;;;;;;5049638;28;20025;-74
2021/07/25 13:40:39;;;;;;;10.00;6.90;;;;;;;;;;5050716;28;20479;-75
2021/07/25 13:43:10;;;;;;;11.55;7.40;;;;;;;;;;5049688;28;20094;-75
2021/07/25 13:45:36;;;;;;;10.93;7.38;;;;;;;;;;5050861;28;20025;-74
2021/07/25 13:48:02;;;;;;;13.38;7.05;;;;;;;;;;5051163;28;20027;-74
2021/07/25 13:50:29;;;;;;;10.63;7.57;;;;;;;;;;5049533;28;20498;-74
2021/07/25 13:52:56;;;;;;;13.00;7.00;;;;;;;;;;5049981;28;20362;-74
2021/07/25 13:55:22;;;;;;;14.13;7.85;;;;;;;;;;5049870;28;20032;-74
2021/07/25 13:57:47;;;;;;;9.85;6.95;;;;;;;;;;5049577;28;20017;-74
2021/07/25 14:00:14;;;;;;;71.85;13.00;;;;;;;;;;5050958;28;20036;-74
2021/07/25 14:02:40;;;;;;;30.23;10.82;;;;;;;;;;5049557;28;20087;-75
2021/07/25 14:05:06;;;;;;;16.20;8.02;;;;;;;;;;5051141;28;20488;-75
2021/07/25 14:07:31;;;;;;;13.25;7.45;;;;;;;;;;5049288;28;20095;-75
2021/07/25 14:09:57;;;;;;;17.40;7.55;;;;;;;;;;5049458;28;20021;-75
2021/07/25 14:12:22;;;;;;;14.77;7.93;;;;;;;;;;5049046;28;20028;-74
2021/07/25 14:14:48;;;;;;;10.73;7.07;;;;;;;;;;5049273;28;20116;-74
2021/07/25 14:17:13;;;;;;;19.10;7.72;;;;;;;;;;5050617;28;20025;-74
2021/07/25 14:19:39;;;;;;;13.80;7.55;;;;;;;;;;5050112;28;20056;-74
2021/07/25 14:22:06;;;;;;;15.40;7.40;;;;;;;;;;5050389;28;20136;-74
2021/07/25 14:24:32;;;;;;;17.92;7.85;;;;;;;;;;5048656;28;20064;-74
2021/07/25 14:26:57;;;;;;;12.48;7.72;;;;;;;;;;5031305;28;20534;-73
2021/07/25 14:29:23;;;;;;;10.70;7.47;;;;;;;;;;5048486;28;20087;-76
2021/07/25 14:31:48;;;;;;;24.73;9.73;;;;;;;;;;5050266;28;20025;-75
2021/07/25 14:34:14;;;;;;;15.23;8.40;;;;;;;;;;5050140;28;20396;-74
2021/07/25 14:36:39;;;;;;;10.52;6.50;;;;;;;;;;5048130;28;20132;-75